sensor_id;sensor_type;location;lat;lon;timestamp;P1;durP1;ratioP1;P2;durP2;ratioP2
16037;SDS011;8123;50.906;6.172;2023-08-01T00:00:16;1.73;;;0.90;;
16037;SDS011;8123;50.906;6.172;2023-08-01T00:02:41;1.90;;;0.80;;
16037;SDS011;8123;50.906;6.172;2023-08-01T00:05:07;2.53;;;1.20;;
16037;SDS011;8123;50.906;6.172;2023-08-01T00:07:33;4.57;;;1.00;;
16037;SDS011;8123;50.906;6.172;2023-08-01T00:09:59;1.13;;;1.03;;
16037;SDS011;8123;50.906;6.172;2023-08-01T00:12:25;1.27;;;0.93;;
16037;SDS011;8123;50.906;6.172;2023-08-01T00:14:50;1.37;;;1.10;;
16037;SDS011;8123;50.906;6.172;2023-08-01T00:17:16;1.00;;;0.90;;
16037;SDS011;8123;50.906;6.172;2023-08-01T00:19:42;0.80;;;0.80;;
16037;SDS011;8123;50.906;6.172;2023-08-01T00:22:07;2.20;;;0.87;;
16037;SDS011;8123;50.906;6.172;2023-08-01T00:24:35;4.10;;;1.00;;
16037;SDS011;8123;50.906;6.172;2023-08-01T00:27:01;2.70;;;1.10;;
16037;SDS011;8123;50.906;6.172;2023-08-01T00:29:26;5.03;;;1.00;;
16037;SDS011;8123;50.906;6.172;2023-08-01T00:31:52;1.00;;;0.90;;
16037;SDS011;8123;50.906;6.172;2023-08-01T00:34:17;1.33;;;0.80;;
16037;SDS011;8123;50.906;6.172;2023-08-01T00:36:43;0.87;;;0.87;;
16037;SDS011;8123;50.906;6.172;2023-08-01T00:39:08;1.00;;;1.00;;
16037;SDS011;8123;50.906;6.172;2023-08-01T00:41:34;0.80;;;0.80;;
16037;SDS011;8123;50.906;6.172;2023-08-01T00:44:00;2.10;;;0.90;;
16037;SDS011;8123;50.906;6.172;2023-08-01T00:46:26;1.20;;;1.10;;
16037;SDS011;8123;50.906;6.172;2023-08-01T00:48:52;1.00;;;1.00;;
16037;SDS011;8123;50.906;6.172;2023-08-01T00:51:18;2.07;;;1.07;;
16037;SDS011;8123;50.906;6.172;2023-08-01T00:53:44;1.00;;;1.00;;
16037;SDS011;8123;50.906;6.172;2023-08-01T00:56:11;3.80;;;1.23;;
16037;SDS011;8123;50.906;6.172;2023-08-01T00:58:37;1.20;;;1.10;;
16037;SDS011;8123;50.906;6.172;2023-08-01T01:01:02;1.30;;;1.10;;
16037;SDS011;8123;50.906;6.172;2023-08-01T01:03:28;1.33;;;1.23;;
16037;SDS011;8123;50.906;6.172;2023-08-01T01:06:37;1.00;;;1.00;;
16037;SDS011;8123;50.906;6.172;2023-08-01T01:08:49;5.93;;;1.20;;
16037;SDS011;8123;50.906;6.172;2023-08-01T01:11:14;1.20;;;1.20;;
16037;SDS011;8123;50.906;6.172;2023-08-01T01:13:40;1.67;;;1.57;;
16037;SDS011;8123;50.906;6.172;2023-08-01T01:16:06;2.60;;;1.77;;
16037;SDS011;8123;50.906;6.172;2023-08-01T01:18:31;2.67;;;1.93;;
16037;SDS011;8123;50.906;6.172;2023-08-01T01:20:57;3.17;;;1.80;;
16037;SDS011;8123;50.906;6.172;2023-08-01T01:23:23;1.73;;;1.63;;
16037;SDS011;8123;50.906;6.172;2023-08-01T01:25:50;1.67;;;1.60;;
16037;SDS011;8123;50.906;6.172;2023-08-01T01:28:16;1.90;;;1.80;;
16037;SDS011;8123;50.906;6.172;2023-08-01T01:30:43;2.00;;;1.90;;
16037;SDS011;8123;50.906;6.172;2023-08-01T01:33:10;1.67;;;1.63;;
16037;SDS011;8123;50.906;6.172;2023-08-01T01:35:36;1.60;;;1.60;;
16037;SDS011;8123;50.906;6.172;2023-08-01T01:38:02;1.70;;;1.60;;
16037;SDS011;8123;50.906;6.172;2023-08-01T01:40:31;1.90;;;1.80;;
16037;SDS011;8123;50.906;6.172;2023-08-01T01:42:58;1.83;;;1.73;;
16037;SDS011;8123;50.906;6.172;2023-08-01T01:45:24;3.53;;;1.90;;
16037;SDS011;8123;50.906;6.172;2023-08-01T01:47:50;1.90;;;1.80;;
16037;SDS011;8123;50.906;6.172;2023-08-01T01:50:16;1.77;;;1.67;;
16037;SDS011;8123;50.906;6.172;2023-08-01T01:52:42;1.90;;;1.80;;
16037;SDS011;8123;50.906;6.172;2023-08-01T01:55:08;1.60;;;1.50;;
16037;SDS011;8123;50.906;6.172;2023-08-01T01:57:34;6.10;;;1.40;;
16037;SDS011;8123;50.906;6.172;2023-08-01T02:00:02;2.90;;;1.83;;
16037;SDS011;8123;50.906;6.172;2023-08-01T02:02:28;3.37;;;2.13;;
16037;SDS011;8123;50.906;6.172;2023-08-01T02:04:54;2.20;;;2.10;;
16037;SDS011;8123;50.906;6.172;2023-08-01T02:07:19;2.67;;;2.50;;
16037;SDS011;8123;50.906;6.172;2023-08-01T02:09:45;2.80;;;2.60;;
16037;SDS011;8123;50.906;6.172;2023-08-01T02:12:11;2.70;;;2.50;;
16037;SDS011;8123;50.906;6.172;2023-08-01T02:14:39;3.77;;;3.40;;
16037;SDS011;8123;50.906;6.172;2023-08-01T02:17:05;3.27;;;2.77;;
16037;SDS011;8123;50.906;6.172;2023-08-01T02:19:32;4.23;;;3.10;;
16037;SDS011;8123;50.906;6.172;2023-08-01T02:21:57;6.03;;;3.00;;
16037;SDS011;8123;50.906;6.172;2023-08-01T02:24:23;6.17;;;3.50;;
16037;SDS011;8123;50.906;6.172;2023-08-01T02:26:49;3.70;;;3.43;;
16037;SDS011;8123;50.906;6.172;2023-08-01T02:29:15;2.90;;;2.70;;
16037;SDS011;8123;50.906;6.172;2023-08-01T02:31:41;5.40;;;3.10;;
16037;SDS011;8123;50.906;6.172;2023-08-01T02:34:07;3.80;;;3.43;;
16037;SDS011;8123;50.906;6.172;2023-08-01T02:36:32;4.27;;;3.57;;
16037;SDS011;8123;50.906;6.172;2023-08-01T02:38:58;4.43;;;3.77;;
16037;SDS011;8123;50.906;6.172;2023-08-01T02:41:23;7.43;;;5.00;;
16037;SDS011;8123;50.906;6.172;2023-08-01T02:43:49;5.77;;;4.73;;
16037;SDS011;8123;50.906;6.172;2023-08-01T02:46:14;6.30;;;5.03;;
16037;SDS011;8123;50.906;6.172;2023-08-01T02:48:40;5.20;;;4.63;;
16037;SDS011;8123;50.906;6.172;2023-08-01T02:51:06;6.60;;;5.57;;
16037;SDS011;8123;50.906;6.172;2023-08-01T02:53:34;5.03;;;4.53;;
16037;SDS011;8123;50.906;6.172;2023-08-01T02:56:00;8.67;;;5.50;;
16037;SDS011;8123;50.906;6.172;2023-08-01T02:58:26;11.33;;;6.30;;
16037;SDS011;8123;50.906;6.172;2023-08-01T03:00:51;6.90;;;5.70;;
16037;SDS011;8123;50.906;6.172;2023-08-01T03:03:17;7.23;;;5.73;;
16037;SDS011;8123;50.906;6.172;2023-08-01T03:05:42;11.60;;;6.50;;
16037;SDS011;8123;50.906;6.172;2023-08-01T03:08:08;10.27;;;5.97;;
16037;SDS011;8123;50.906;6.172;2023-08-01T03:10:34;8.37;;;5.87;;
16037;SDS011;8123;50.906;6.172;2023-08-01T03:12:59;8.50;;;6.50;;
16037;SDS011;8123;50.906;6.172;2023-08-01T03:15:26;10.40;;;7.20;;
16037;SDS011;8123;50.906;6.172;2023-08-01T03:17:52;10.30;;;6.90;;
16037;SDS011;8123;50.906;6.172;2023-08-01T03:20:17;14.40;;;7.57;;
16037;SDS011;8123;50.906;6.172;2023-08-01T03:22:43;12.10;;;6.70;;
16037;SDS011;8123;50.906;6.172;2023-08-01T03:25:09;9.27;;;7.10;;
16037;SDS011;8123;50.906;6.172;2023-08-01T03:27:35;9.27;;;7.40;;
16037;SDS011;8123;50.906;6.172;2023-08-01T03:30:00;18.37;;;7.70;;
16037;SDS011;8123;50.906;6.172;2023-08-01T03:32:27;12.13;;;7.70;;
16037;SDS011;8123;50.906;6.172;2023-08-01T03:34:53;15.30;;;7.67;;
16037;SDS011;8123;50.906;6.172;2023-08-01T03:37:18;11.30;;;7.10;;
16037;SDS011;8123;50.906;6.172;2023-08-01T03:39:44;14.83;;;7.20;;
16037;SDS011;8123;50.906;6.172;2023-08-01T03:42:10;17.07;;;7.43;;
16037;SDS011;8123;50.906;6.172;2023-08-01T03:44:35;14.37;;;8.77;;
16037;SDS011;8123;50.906;6.172;2023-08-01T03:47:01;14.80;;;7.70;;
16037;SDS011;8123;50.906;6.172;2023-08-01T03:49:27;15.87;;;9.10;;
16037;SDS011;8123;50.906;6.172;2023-08-01T03:51:52;16.07;;;7.63;;
16037;SDS011;8123;50.906;6.172;2023-08-01T03:54:18;8.90;;;7.23;;
16037;SDS011;8123;50.906;6.172;2023-08-01T03:56:43;12.30;;;6.83;;
16037;SDS011;8123;50.906;6.172;2023-08-01T03:59:11;22.50;;;8.20;;
16037;SDS011;8123;50.906;6.172;2023-08-01T04:01:38;14.53;;;7.50;;
16037;SDS011;8123;50.906;6.172;2023-08-01T04:04:03;10.97;;;7.73;;
16037;SDS011;8123;50.906;6.172;2023-08-01T04:06:29;9.70;;;7.80;;
16037;SDS011;8123;50.906;6.172;2023-08-01T04:08:54;13.40;;;6.40;;
16037;SDS011;8123;50.906;6.172;2023-08-01T04:11:21;14.53;;;8.07;;
16037;SDS011;8123;50.906;6.172;2023-08-01T04:13:47;11.17;;;7.30;;
16037;SDS011;8123;50.906;6.172;2023-08-01T04:16:13;15.10;;;7.60;;
16037;SDS011;8123;50.906;6.172;2023-08-01T04:18:38;12.83;;;7.60;;
16037;SDS011;8123;50.906;6.172;2023-08-01T04:21:04;16.27;;;7.40;;
16037;SDS011;8123;50.906;6.172;2023-08-01T04:23:31;11.40;;;8.07;;
16037;SDS011;8123;50.906;6.172;2023-08-01T04:25:57;21.07;;;8.47;;
16037;SDS011;8123;50.906;6.172;2023-08-01T04:28:24;13.50;;;8.30;;
16037;SDS011;8123;50.906;6.172;2023-08-01T04:30:50;16.13;;;7.27;;
16037;SDS011;8123;50.906;6.172;2023-08-01T04:33:16;15.47;;;7.30;;
16037;SDS011;8123;50.906;6.172;2023-08-01T04:35:42;19.63;;;7.97;;
16037;SDS011;8123;50.906;6.172;2023-08-01T04:38:08;18.10;;;7.73;;
16037;SDS011;8123;50.906;6.172;2023-08-01T04:40:33;11.67;;;7.00;;
16037;SDS011;8123;50.906;6.172;2023-08-01T04:43:01;16.57;;;8.53;;
16037;SDS011;8123;50.906;6.172;2023-08-01T04:45:27;14.53;;;7.70;;
16037;SDS011;8123;50.906;6.172;2023-08-01T04:47:52;14.03;;;8.40;;
16037;SDS011;8123;50.906;6.172;2023-08-01T04:50:18;14.77;;;7.50;;
16037;SDS011;8123;50.906;6.172;2023-08-01T04:52:44;10.00;;;7.10;;
16037;SDS011;8123;50.906;6.172;2023-08-01T04:55:09;16.33;;;7.70;;
16037;SDS011;8123;50.906;6.172;2023-08-01T04:57:35;13.37;;;6.83;;
16037;SDS011;8123;50.906;6.172;2023-08-01T05:00:01;14.40;;;7.40;;
16037;SDS011;8123;50.906;6.172;2023-08-01T05:02:28;24.23;;;7.53;;
16037;SDS011;8123;50.906;6.172;2023-08-01T05:04:53;15.60;;;6.90;;
16037;SDS011;8123;50.906;6.172;2023-08-01T05:07:19;15.53;;;7.50;;
16037;SDS011;8123;50.906;6.172;2023-08-01T05:09:44;12.80;;;7.40;;
16037;SDS011;8123;50.906;6.172;2023-08-01T05:12:10;12.33;;;6.43;;
16037;SDS011;8123;50.906;6.172;2023-08-01T05:14:36;12.00;;;6.63;;
16037;SDS011;8123;50.906;6.172;2023-08-01T05:17:01;12.10;;;7.00;;
16037;SDS011;8123;50.906;6.172;2023-08-01T05:19:27;16.73;;;7.60;;
16037;SDS011;8123;50.906;6.172;2023-08-01T05:21:53;13.43;;;7.47;;
16037;SDS011;8123;50.906;6.172;2023-08-01T05:24:20;14.63;;;7.67;;
16037;SDS011;8123;50.906;6.172;2023-08-01T05:26:45;10.50;;;6.80;;
16037;SDS011;8123;50.906;6.172;2023-08-01T05:29:11;12.87;;;7.63;;
16037;SDS011;8123;50.906;6.172;2023-08-01T05:31:37;13.43;;;7.73;;
16037;SDS011;8123;50.906;6.172;2023-08-01T05:34:02;27.13;;;8.00;;
16037;SDS011;8123;50.906;6.172;2023-08-01T05:36:28;20.07;;;7.70;;
16037;SDS011;8123;50.906;6.172;2023-08-01T05:38:53;15.53;;;6.93;;
16037;SDS011;8123;50.906;6.172;2023-08-01T05:41:19;9.47;;;7.17;;
16037;SDS011;8123;50.906;6.172;2023-08-01T05:43:46;13.13;;;7.37;;
16037;SDS011;8123;50.906;6.172;2023-08-01T05:46:13;16.60;;;7.30;;
16037;SDS011;8123;50.906;6.172;2023-08-01T05:48:38;14.37;;;7.80;;
16037;SDS011;8123;50.906;6.172;2023-08-01T05:51:04;19.77;;;7.40;;
16037;SDS011;8123;50.906;6.172;2023-08-01T05:53:30;20.63;;;7.10;;
16037;SDS011;8123;50.906;6.172;2023-08-01T05:55:55;15.20;;;8.00;;
16037;SDS011;8123;50.906;6.172;2023-08-01T05:58:21;11.63;;;7.43;;
16037;SDS011;8123;50.906;6.172;2023-08-01T06:00:47;13.30;;;7.47;;
16037;SDS011;8123;50.906;6.172;2023-08-01T06:03:13;12.80;;;8.50;;
16037;SDS011;8123;50.906;6.172;2023-08-01T06:05:39;20.00;;;7.87;;
16037;SDS011;8123;50.906;6.172;2023-08-01T06:08:07;14.30;;;8.10;;
16037;SDS011;8123;50.906;6.172;2023-08-01T06:10:33;16.93;;;8.07;;
16037;SDS011;8123;50.906;6.172;2023-08-01T06:13:02;13.80;;;7.93;;
16037;SDS011;8123;50.906;6.172;2023-08-01T06:15:27;18.60;;;7.90;;
16037;SDS011;8123;50.906;6.172;2023-08-01T06:17:53;16.10;;;7.87;;
16037;SDS011;8123;50.906;6.172;2023-08-01T06:20:19;16.87;;;8.00;;
16037;SDS011;8123;50.906;6.172;2023-08-01T06:22:44;18.30;;;8.63;;
16037;SDS011;8123;50.906;6.172;2023-08-01T06:25:10;15.50;;;8.00;;
16037;SDS011;8123;50.906;6.172;2023-08-01T06:27:36;10.80;;;6.90;;
16037;SDS011;8123;50.906;6.172;2023-08-01T06:30:02;12.67;;;8.03;;
16037;SDS011;8123;50.906;6.172;2023-08-01T06:32:28;15.83;;;7.77;;
16037;SDS011;8123;50.906;6.172;2023-08-01T06:34:54;11.00;;;7.37;;
16037;SDS011;8123;50.906;6.172;2023-08-01T06:37:20;16.00;;;7.70;;
16037;SDS011;8123;50.906;6.172;2023-08-01T06:39:45;13.43;;;7.77;;
16037;SDS011;8123;50.906;6.172;2023-08-01T06:42:11;15.90;;;7.43;;
16037;SDS011;8123;50.906;6.172;2023-08-01T06:44:36;11.07;;;6.57;;
16037;SDS011;8123;50.906;6.172;2023-08-01T06:47:02;12.00;;;6.50;;
16037;SDS011;8123;50.906;6.172;2023-08-01T06:49:28;16.33;;;7.20;;
16037;SDS011;8123;50.906;6.172;2023-08-01T06:51:54;19.37;;;7.87;;
16037;SDS011;8123;50.906;6.172;2023-08-01T06:54:19;15.13;;;8.10;;
16037;SDS011;8123;50.906;6.172;2023-08-01T06:56:45;14.80;;;7.17;;
16037;SDS011;8123;50.906;6.172;2023-08-01T06:59:13;16.47;;;7.63;;
16037;SDS011;8123;50.906;6.172;2023-08-01T07:01:40;15.13;;;7.60;;
16037;SDS011;8123;50.906;6.172;2023-08-01T07:04:08;17.40;;;7.57;;
16037;SDS011;8123;50.906;6.172;2023-08-01T07:06:37;23.57;;;8.53;;
16037;SDS011;8123;50.906;6.172;2023-08-01T07:09:03;23.30;;;9.27;;
16037;SDS011;8123;50.906;6.172;2023-08-01T07:11:29;22.10;;;9.30;;
16037;SDS011;8123;50.906;6.172;2023-08-01T07:13:54;20.83;;;8.80;;
16037;SDS011;8123;50.906;6.172;2023-08-01T07:16:20;20.47;;;9.80;;
16037;SDS011;8123;50.906;6.172;2023-08-01T07:18:45;16.67;;;7.83;;
16037;SDS011;8123;50.906;6.172;2023-08-01T07:21:13;15.87;;;8.60;;
16037;SDS011;8123;50.906;6.172;2023-08-01T07:23:39;17.70;;;8.80;;
16037;SDS011;8123;50.906;6.172;2023-08-01T07:26:04;15.97;;;8.50;;
16037;SDS011;8123;50.906;6.172;2023-08-01T07:28:30;22.10;;;9.57;;
16037;SDS011;8123;50.906;6.172;2023-08-01T07:30:59;14.10;;;8.30;;
16037;SDS011;8123;50.906;6.172;2023-08-01T07:33:30;15.20;;;9.40;;
16037;SDS011;8123;50.906;6.172;2023-08-01T07:35:56;22.83;;;8.60;;
16037;SDS011;8123;50.906;6.172;2023-08-01T07:38:22;17.83;;;7.20;;
16037;SDS011;8123;50.906;6.172;2023-08-01T07:40:48;22.27;;;7.67;;
16037;SDS011;8123;50.906;6.172;2023-08-01T07:43:13;19.00;;;9.10;;
16037;SDS011;8123;50.906;6.172;2023-08-01T07:45:39;16.73;;;7.87;;
16037;SDS011;8123;50.906;6.172;2023-08-01T07:48:05;23.13;;;7.10;;
16037;SDS011;8123;50.906;6.172;2023-08-01T07:50:30;14.03;;;7.37;;
16037;SDS011;8123;50.906;6.172;2023-08-01T07:52:57;12.60;;;7.03;;
16037;SDS011;8123;50.906;6.172;2023-08-01T07:55:23;13.70;;;6.43;;
16037;SDS011;8123;50.906;6.172;2023-08-01T07:57:48;17.77;;;6.83;;
16037;SDS011;8123;50.906;6.172;2023-08-01T08:00:14;10.67;;;6.47;;
16037;SDS011;8123;50.906;6.172;2023-08-01T08:02:44;14.33;;;6.83;;
16037;SDS011;8123;50.906;6.172;2023-08-01T08:05:10;16.50;;;6.73;;
16037;SDS011;8123;50.906;6.172;2023-08-01T08:07:36;13.27;;;6.17;;
16037;SDS011;8123;50.906;6.172;2023-08-01T08:10:03;13.57;;;6.10;;
16037;SDS011;8123;50.906;6.172;2023-08-01T08:12:29;19.07;;;6.40;;
16037;SDS011;8123;50.906;6.172;2023-08-01T08:14:54;16.00;;;5.77;;
16037;SDS011;8123;50.906;6.172;2023-08-01T08:17:20;11.93;;;5.43;;
16037;SDS011;8123;50.906;6.172;2023-08-01T08:19:46;14.20;;;5.80;;
16037;SDS011;8123;50.906;6.172;2023-08-01T08:22:11;8.10;;;5.27;;
16037;SDS011;8123;50.906;6.172;2023-08-01T08:24:37;13.27;;;6.47;;
16037;SDS011;8123;50.906;6.172;2023-08-01T08:27:03;8.73;;;5.60;;
16037;SDS011;8123;50.906;6.172;2023-08-01T08:29:29;12.63;;;6.80;;
16037;SDS011;8123;50.906;6.172;2023-08-01T08:31:56;12.30;;;5.87;;
16037;SDS011;8123;50.906;6.172;2023-08-01T08:34:21;16.63;;;6.60;;
16037;SDS011;8123;50.906;6.172;2023-08-01T08:36:47;11.20;;;5.33;;
16037;SDS011;8123;50.906;6.172;2023-08-01T08:39:15;8.63;;;5.57;;
16037;SDS011;8123;50.906;6.172;2023-08-01T08:41:47;11.53;;;5.50;;
16037;SDS011;8123;50.906;6.172;2023-08-01T08:44:17;5.47;;;4.90;;
16037;SDS011;8123;50.906;6.172;2023-08-01T08:46:53;7.90;;;5.00;;
16037;SDS011;8123;50.906;6.172;2023-08-01T08:49:19;12.20;;;6.00;;
16037;SDS011;8123;50.906;6.172;2023-08-01T08:51:46;9.80;;;5.80;;
16037;SDS011;8123;50.906;6.172;2023-08-01T08:54:13;9.90;;;5.90;;
16037;SDS011;8123;50.906;6.172;2023-08-01T08:56:39;11.77;;;6.27;;
16037;SDS011;8123;50.906;6.172;2023-08-01T08:59:06;9.73;;;5.33;;
16037;SDS011;8123;50.906;6.172;2023-08-01T09:01:32;12.23;;;5.83;;
16037;SDS011;8123;50.906;6.172;2023-08-01T09:03:59;11.13;;;5.77;;
16037;SDS011;8123;50.906;6.172;2023-08-01T09:06:27;8.93;;;5.03;;
16037;SDS011;8123;50.906;6.172;2023-08-01T09:08:59;16.20;;;5.53;;
16037;SDS011;8123;50.906;6.172;2023-08-01T09:11:34;10.43;;;5.70;;
16037;SDS011;8123;50.906;6.172;2023-08-01T09:14:05;10.13;;;6.10;;
16037;SDS011;8123;50.906;6.172;2023-08-01T09:16:32;10.43;;;5.77;;
16037;SDS011;8123;50.906;6.172;2023-08-01T09:18:58;12.67;;;5.97;;
16037;SDS011;8123;50.906;6.172;2023-08-01T09:21:27;13.40;;;5.70;;
16037;SDS011;8123;50.906;6.172;2023-08-01T09:23:58;14.13;;;6.47;;
16037;SDS011;8123;50.906;6.172;2023-08-01T09:26:32;13.10;;;6.10;;
16037;SDS011;8123;50.906;6.172;2023-08-01T09:28:58;13.73;;;6.03;;
16037;SDS011;8123;50.906;6.172;2023-08-01T09:31:28;11.40;;;6.03;;
16037;SDS011;8123;50.906;6.172;2023-08-01T09:33:58;13.97;;;6.03;;
16037;SDS011;8123;50.906;6.172;2023-08-01T09:36:24;7.23;;;5.40;;
16037;SDS011;8123;50.906;6.172;2023-08-01T09:38:50;6.87;;;4.70;;
16037;SDS011;8123;50.906;6.172;2023-08-01T09:41:19;9.00;;;4.53;;
16037;SDS011;8123;50.906;6.172;2023-08-01T09:43:48;9.30;;;4.90;;
16037;SDS011;8123;50.906;6.172;2023-08-01T09:46:15;13.30;;;4.60;;
16037;SDS011;8123;50.906;6.172;2023-08-01T09:48:41;8.57;;;4.87;;
16037;SDS011;8123;50.906;6.172;2023-08-01T09:51:08;14.47;;;4.87;;
16037;SDS011;8123;50.906;6.172;2023-08-01T09:53:33;12.03;;;5.40;;
16037;SDS011;8123;50.906;6.172;2023-08-01T09:56:00;9.30;;;4.60;;
16037;SDS011;8123;50.906;6.172;2023-08-01T09:58:31;5.47;;;4.87;;
16037;SDS011;8123;50.906;6.172;2023-08-01T10:00:59;10.13;;;4.33;;
16037;SDS011;8123;50.906;6.172;2023-08-01T10:03:27;5.27;;;4.07;;
16037;SDS011;8123;50.906;6.172;2023-08-01T10:05:53;9.67;;;4.77;;
16037;SDS011;8123;50.906;6.172;2023-08-01T10:08:21;9.33;;;4.50;;
16037;SDS011;8123;50.906;6.172;2023-08-01T10:10:48;5.77;;;3.67;;
16037;SDS011;8123;50.906;6.172;2023-08-01T10:13:14;7.40;;;3.97;;
16037;SDS011;8123;50.906;6.172;2023-08-01T10:15:40;7.07;;;4.20;;
16037;SDS011;8123;50.906;6.172;2023-08-01T10:18:06;10.03;;;4.57;;
16037;SDS011;8123;50.906;6.172;2023-08-01T10:20:34;7.53;;;4.10;;
16037;SDS011;8123;50.906;6.172;2023-08-01T10:23:02;12.23;;;5.00;;
16037;SDS011;8123;50.906;6.172;2023-08-01T10:25:29;9.73;;;4.17;;
16037;SDS011;8123;50.906;6.172;2023-08-01T10:28:01;9.03;;;4.47;;
16037;SDS011;8123;50.906;6.172;2023-08-01T10:30:28;7.37;;;3.97;;
16037;SDS011;8123;50.906;6.172;2023-08-01T10:32:58;6.27;;;3.77;;
16037;SDS011;8123;50.906;6.172;2023-08-01T10:35:31;11.90;;;4.27;;
16037;SDS011;8123;50.906;6.172;2023-08-01T10:38:04;6.70;;;3.83;;
16037;SDS011;8123;50.906;6.172;2023-08-01T10:40:37;6.80;;;4.00;;
16037;SDS011;8123;50.906;6.172;2023-08-01T10:43:04;7.07;;;3.70;;
16037;SDS011;8123;50.906;6.172;2023-08-01T10:45:30;8.90;;;4.20;;
16037;SDS011;8123;50.906;6.172;2023-08-01T10:48:11;8.83;;;3.60;;
16037;SDS011;8123;50.906;6.172;2023-08-01T10:50:37;4.50;;;3.50;;
16037;SDS011;8123;50.906;6.172;2023-08-01T10:53:04;7.30;;;3.30;;
16037;SDS011;8123;50.906;6.172;2023-08-01T10:55:46;9.33;;;4.20;;
16037;SDS011;8123;50.906;6.172;2023-08-01T10:58:12;13.03;;;4.10;;
16037;SDS011;8123;50.906;6.172;2023-08-01T11:00:38;8.30;;;4.33;;
16037;SDS011;8123;50.906;6.172;2023-08-01T11:03:03;3.50;;;3.03;;
16037;SDS011;8123;50.906;6.172;2023-08-01T11:05:29;6.03;;;3.00;;
16037;SDS011;8123;50.906;6.172;2023-08-01T11:07:59;5.80;;;2.83;;
16037;SDS011;8123;50.906;6.172;2023-08-01T11:10:26;9.27;;;3.67;;
16037;SDS011;8123;50.906;6.172;2023-08-01T11:12:56;9.17;;;3.80;;
16037;SDS011;8123;50.906;6.172;2023-08-01T11:15:23;7.53;;;3.97;;
16037;SDS011;8123;50.906;6.172;2023-08-01T11:17:52;6.53;;;3.60;;
16037;SDS011;8123;50.906;6.172;2023-08-01T11:20:20;7.50;;;4.13;;
16037;SDS011;8123;50.906;6.172;2023-08-01T11:22:51;12.37;;;4.47;;
16037;SDS011;8123;50.906;6.172;2023-08-01T11:25:18;6.40;;;4.00;;
16037;SDS011;8123;50.906;6.172;2023-08-01T11:27:45;6.37;;;3.93;;
16037;SDS011;8123;50.906;6.172;2023-08-01T11:30:10;5.83;;;3.40;;
16037;SDS011;8123;50.906;6.172;2023-08-01T11:32:37;4.63;;;3.33;;
16037;SDS011;8123;50.906;6.172;2023-08-01T11:35:03;7.80;;;3.40;;
16037;SDS011;8123;50.906;6.172;2023-08-01T11:37:29;7.77;;;2.80;;
16037;SDS011;8123;50.906;6.172;2023-08-01T11:39:55;7.50;;;2.93;;
16037;SDS011;8123;50.906;6.172;2023-08-01T11:42:23;7.43;;;2.60;;
16037;SDS011;8123;50.906;6.172;2023-08-01T11:44:49;7.27;;;3.37;;
16037;SDS011;8123;50.906;6.172;2023-08-01T11:47:15;4.10;;;2.50;;
16037;SDS011;8123;50.906;6.172;2023-08-01T11:49:45;9.27;;;3.77;;
16037;SDS011;8123;50.906;6.172;2023-08-01T11:52:28;10.97;;;3.30;;
16037;SDS011;8123;50.906;6.172;2023-08-01T11:54:54;19.03;;;4.30;;
16037;SDS011;8123;50.906;6.172;2023-08-01T11:57:20;7.87;;;3.33;;
16037;SDS011;8123;50.906;6.172;2023-08-01T11:59:47;10.60;;;3.97;;
16037;SDS011;8123;50.906;6.172;2023-08-01T12:02:22;6.63;;;3.30;;
16037;SDS011;8123;50.906;6.172;2023-08-01T12:04:49;7.53;;;3.80;;
16037;SDS011;8123;50.906;6.172;2023-08-01T12:07:15;6.67;;;2.63;;
16037;SDS011;8123;50.906;6.172;2023-08-01T12:09:41;3.20;;;2.67;;
16037;SDS011;8123;50.906;6.172;2023-08-01T12:12:08;5.30;;;3.37;;
16037;SDS011;8123;50.906;6.172;2023-08-01T12:14:34;7.60;;;3.00;;
16037;SDS011;8123;50.906;6.172;2023-08-01T12:17:05;9.00;;;2.97;;
16037;SDS011;8123;50.906;6.172;2023-08-01T12:19:30;4.03;;;2.97;;
16037;SDS011;8123;50.906;6.172;2023-08-01T12:21:58;8.37;;;3.60;;
16037;SDS011;8123;50.906;6.172;2023-08-01T12:24:24;7.33;;;3.00;;
16037;SDS011;8123;50.906;6.172;2023-08-01T12:26:50;7.50;;;2.87;;
16037;SDS011;8123;50.906;6.172;2023-08-01T12:29:16;8.80;;;3.30;;
16037;SDS011;8123;50.906;6.172;2023-08-01T12:31:42;5.50;;;2.70;;
16037;SDS011;8123;50.906;6.172;2023-08-01T12:34:07;6.43;;;3.10;;
16037;SDS011;8123;50.906;6.172;2023-08-01T12:36:33;6.60;;;3.30;;
16037;SDS011;8123;50.906;6.172;2023-08-01T12:38:58;11.00;;;3.57;;
16037;SDS011;8123;50.906;6.172;2023-08-01T12:41:24;7.40;;;3.40;;
16037;SDS011;8123;50.906;6.172;2023-08-01T12:43:50;4.83;;;2.67;;
16037;SDS011;8123;50.906;6.172;2023-08-01T12:46:16;8.50;;;3.50;;
16037;SDS011;8123;50.906;6.172;2023-08-01T12:48:41;3.90;;;2.73;;
16037;SDS011;8123;50.906;6.172;2023-08-01T12:51:08;5.27;;;2.87;;
16037;SDS011;8123;50.906;6.172;2023-08-01T12:53:33;3.10;;;2.43;;
16037;SDS011;8123;50.906;6.172;2023-08-01T12:55:59;3.40;;;3.00;;
16037;SDS011;8123;50.906;6.172;2023-08-01T12:58:25;7.00;;;3.10;;
16037;SDS011;8123;50.906;6.172;2023-08-01T13:00:50;5.63;;;3.00;;
16037;SDS011;8123;50.906;6.172;2023-08-01T13:03:16;5.33;;;2.87;;
16037;SDS011;8123;50.906;6.172;2023-08-01T13:05:42;8.00;;;4.30;;
16037;SDS011;8123;50.906;6.172;2023-08-01T13:08:08;7.27;;;4.00;;
16037;SDS011;8123;50.906;6.172;2023-08-01T13:10:35;3.90;;;3.47;;
16037;SDS011;8123;50.906;6.172;2023-08-01T13:13:02;6.87;;;3.13;;
16037;SDS011;8123;50.906;6.172;2023-08-01T13:15:29;4.43;;;3.00;;
16037;SDS011;8123;50.906;6.172;2023-08-01T13:17:55;9.37;;;3.60;;
16037;SDS011;8123;50.906;6.172;2023-08-01T13:20:21;3.40;;;3.10;;
16037;SDS011;8123;50.906;6.172;2023-08-01T13:22:50;13.33;;;3.30;;
16037;SDS011;8123;50.906;6.172;2023-08-01T13:25:17;5.33;;;3.00;;
16037;SDS011;8123;50.906;6.172;2023-08-01T13:27:43;5.83;;;3.27;;
16037;SDS011;8123;50.906;6.172;2023-08-01T13:30:09;15.53;;;8.13;;
16037;SDS011;8123;50.906;6.172;2023-08-01T13:32:39;8.70;;;3.73;;
16037;SDS011;8123;50.906;6.172;2023-08-01T13:35:04;16.00;;;8.67;;
16037;SDS011;8123;50.906;6.172;2023-08-01T13:37:30;8.73;;;4.70;;
16037;SDS011;8123;50.906;6.172;2023-08-01T13:39:57;8.07;;;3.67;;
16037;SDS011;8123;50.906;6.172;2023-08-01T13:42:23;6.20;;;3.60;;
16037;SDS011;8123;50.906;6.172;2023-08-01T13:44:48;11.83;;;3.40;;
16037;SDS011;8123;50.906;6.172;2023-08-01T13:47:14;10.00;;;4.23;;
16037;SDS011;8123;50.906;6.172;2023-08-01T13:49:40;10.57;;;4.13;;
16037;SDS011;8123;50.906;6.172;2023-08-01T13:52:05;11.27;;;3.23;;
16037;SDS011;8123;50.906;6.172;2023-08-01T13:54:31;14.57;;;4.27;;
16037;SDS011;8123;50.906;6.172;2023-08-01T13:56:57;9.03;;;3.30;;
16037;SDS011;8123;50.906;6.172;2023-08-01T13:59:22;7.13;;;2.90;;
16037;SDS011;8123;50.906;6.172;2023-08-01T14:01:48;10.60;;;3.40;;
16037;SDS011;8123;50.906;6.172;2023-08-01T14:04:14;10.50;;;3.67;;
16037;SDS011;8123;50.906;6.172;2023-08-01T14:06:40;8.10;;;2.87;;
16037;SDS011;8123;50.906;6.172;2023-08-01T14:09:06;8.10;;;3.07;;
16037;SDS011;8123;50.906;6.172;2023-08-01T14:11:33;5.43;;;3.00;;
16037;SDS011;8123;50.906;6.172;2023-08-01T14:13:59;6.43;;;3.30;;
16037;SDS011;8123;50.906;6.172;2023-08-01T14:16:25;12.23;;;3.00;;
16037;SDS011;8123;50.906;6.172;2023-08-01T14:18:51;3.17;;;2.43;;
16037;SDS011;8123;50.906;6.172;2023-08-01T14:21:17;11.03;;;3.17;;
16037;SDS011;8123;50.906;6.172;2023-08-01T14:23:43;7.03;;;3.83;;
16037;SDS011;8123;50.906;6.172;2023-08-01T14:26:09;12.50;;;3.27;;
16037;SDS011;8123;50.906;6.172;2023-08-01T14:28:34;9.87;;;3.77;;
16037;SDS011;8123;50.906;6.172;2023-08-01T14:31:00;10.83;;;3.27;;
16037;SDS011;8123;50.906;6.172;2023-08-01T14:33:27;6.90;;;3.23;;
16037;SDS011;8123;50.906;6.172;2023-08-01T14:35:53;8.60;;;3.60;;
16037;SDS011;8123;50.906;6.172;2023-08-01T14:38:19;5.93;;;2.97;;
16037;SDS011;8123;50.906;6.172;2023-08-01T14:40:44;7.13;;;3.17;;
16037;SDS011;8123;50.906;6.172;2023-08-01T14:43:10;10.77;;;2.93;;
16037;SDS011;8123;50.906;6.172;2023-08-01T14:45:39;8.63;;;3.70;;
16037;SDS011;8123;50.906;6.172;2023-08-01T14:48:05;3.03;;;2.40;;
16037;SDS011;8123;50.906;6.172;2023-08-01T14:50:31;6.07;;;2.90;;